Terminal Aerodrome Forecast
Issued by NWS

Home | Current Version | Previous Version | Text Only | Print | Product List | Glossary On
Versions: 1 2 3 4 5 6 7 8 9 10 11 12 13 14 15 16 17 18 19 20 21 22 23 24 25 26 27 28
264
FTUS43 KDDC 231120
TAFHYS
TAF
KHYS 231120Z 2312/2412 18007KT P6SM VCTS SCT070CB BKN110
     FM231400 18009KT P6SM SCT090
     FM231700 18013KT P6SM SCT090
     FM240600 18006KT P6SM BKN100=

USA.gov is the U.S. government's official web portal to all federal, state and local government web resources and services.